Chester-le-Street, United Kingdom
Current Conditions -  °F | °C
As of 4:20 PM on Thursday 18 Dec 2014 (Local Time) from EGNT Reporting Station
Rain Showers Rain Showers  
Wind Chill: 50°   Ceiling: Unl
Heat Index: 50°   Visibility: 6mi
Dew Point: 46°   Wind: 29mph
Humidity: 87%   Direction: 260°W
Pressure: 29.38"   Gusts: NA
Location:  54.86°N, 1.59°W
Report Text: EGNT 181620Z 26025KT 9999 VCSH SCT015 10/08 Q0995
Loading
Personal Weather Stations






























Interactive Weather Map New forecast layout! Learn more

10-Day Weather Forecast

Advertisements
Track Severe Weather on mobile